This is the latest recevied weather packets stored in our database for station/object KR4BRU. If no packets are shown the sender has not sent any weather packets the latest 10 day(s).
| Time | Temp. | Humidity | Pressure | Rain* | Wind** | Luminosity | Snow |
|---|---|---|---|---|---|---|---|
| 1778118897 | 19.44° C | 90% | 1009 hPa | 0 mm | - | 0 W/m² | - |
| 1778118296 | 19.44° C | 90% | 1009.2 hPa | 0 mm | - | 0 W/m² | - |
| 1778117695 | 19.44° C | 90% | 1009.5 hPa | 0 mm | - | 0 W/m² | - |
| 1778117095 | 19.44° C | 90% | 1009.5 hPa | 0 mm | - | 0 W/m² | - |
| 1778116494 | 19.44° C | 90% | 1009.3 hPa | 0 mm | - | 0 W/m² | - |
| 1778115890 | 19.44° C | 90% | 1009.1 hPa | 0.51 mm | - | 0 W/m² | - |
| 1778115291 | 19.44° C | 90% | 1008.8 hPa | 0 mm | - | 0 W/m² | - |
| 1778114690 | 19.44° C | 90% | 1009 hPa | 0 mm | - | 0 W/m² | - |
| 1778114088 | 19.44° C | 90% | 1009.2 hPa | 0 mm | - | 0 W/m² | - |
| 1778113486 | 19.44° C | 90% | 1008.8 hPa | 0.51 mm | - | 3 W/m² | - |
| 1778112886 | 19.44° C | 90% | 1007.3 hPa | 12.7 mm | - | 28 W/m² | - |
| 1778112285 | 19.44° C | 90% | 1009.9 hPa | 2.29 mm | - | 13 W/m² | - |
| 1778111684 | 19.44° C | 90% | 1009.7 hPa | 0.51 mm | - | 2 W/m² | - |
| 1778111083 | 19.44° C | 90% | 1009.1 hPa | 1.27 mm | - | 6 W/m² | - |
| 1778110483 | 19.44° C | 90% | 1009.3 hPa | 7.87 mm | - | 15 W/m² | - |
| 1778109882 | 19.44° C | 90% | 1009.7 hPa | 10.16 mm | - | 11 W/m² | - |
| 1778109281 | 19.44° C | 90% | 1009.1 hPa | 14.99 mm | - | 8 W/m² | - |
| 1778108680 | 19.44° C | 90% | 1008.5 hPa | 4.32 mm | - | 6 W/m² | - |
| 1778108080 | 19.44° C | 89% | 1008.4 hPa | 10.16 mm | - | 15 W/m² | - |
| 1778107480 | 19.44° C | 89% | 1008.5 hPa | 9.65 mm | - | 13 W/m² | - |
| 1778106878 | 19.44° C | 89% | 1008.1 hPa | 14.48 mm | - | 13 W/m² | - |
| 1778106278 | 19.44° C | 89% | 1008.2 hPa | 33.53 mm | - | 12 W/m² | - |
| 1778105678 | 19.44° C | 89% | 1009.4 hPa | 19.81 mm | - | 6 W/m² | - |
| 1778105077 | 19.44° C | 89% | 1007.9 hPa | 16.76 mm | - | 6 W/m² | - |
| 1778104476 | 19.44° C | 88% | 1008.4 hPa | 3.56 mm | - | 10 W/m² | - |
* Rain latest hour (hover to see other rain measurements)
** Current wind speed in m/s (hover to see current wind gust speed)